Time;durP1;ratioP1;P1;durP2;ratioP2;P2;SDS_P1;SDS_P2;PMS_P1;PMS_P2;Temp;Humidity;BMP_temperature;BMP_pressure;BME280_temperature;BME280_humidity;BME280_pressure;Samples;Min_cycle;Max_cycle;Signal;HPM_P1;HPM_P2
2023/04/23 00:00:00;;;;;;;;;;;17.40;55.30;;;;;;5091875;28;19946;-73
2023/04/23 00:02:28;;;;;;;;;;;17.30;55.20;;;;;;5092060;28;19920;-73
2023/04/23 00:04:56;;;;;;;;;;;17.30;55.20;;;;;;5073820;28;20387;-73
2023/04/23 00:07:22;;;;;;;;;;;17.30;55.20;;;;;;5074123;28;20446;-72
2023/04/23 00:09:49;;;;;;;;;;;17.30;55.20;;;;;;5073791;28;20007;-74
2023/04/23 00:12:15;;;;;;;;;;;17.30;55.20;;;;;;5074080;28;19970;-74
2023/04/23 00:14:40;;;;;;;;;;;17.30;55.20;;;;;;5073427;28;19924;-73
2023/04/23 00:17:06;;;;;;;;;;;17.30;55.20;;;;;;5074057;28;19928;-75
2023/04/23 00:19:31;;;;;;;;;;;17.20;55.10;;;;;;5073885;28;19920;-74
2023/04/23 00:21:57;;;;;;;;;;;17.20;55.10;;;;;;5075505;28;19920;-73
2023/04/23 00:24:22;;;;;;;;;;;17.20;55.10;;;;;;5077568;28;19931;-73
2023/04/23 00:26:48;;;;;;;;;;;17.20;55.10;;;;;;5077563;28;20291;-74
2023/04/23 00:29:13;;;;;;;;;;;17.20;55.10;;;;;;5077106;28;19920;-74
2023/04/23 00:31:39;;;;;;;;;;;17.20;55.10;;;;;;5077075;28;19927;-74
2023/04/23 00:34:04;;;;;;;;;;;17.20;55.10;;;;;;5077128;28;19924;-74
2023/04/23 00:36:30;;;;;;;;;;;17.20;55.10;;;;;;5077020;28;19955;-74
2023/04/23 00:38:55;;;;;;;;;;;17.20;55.10;;;;;;5077479;28;19924;-72
2023/04/23 00:41:22;;;;;;;;;;;17.20;55.10;;;;;;5076915;28;19927;-74
2023/04/23 00:43:48;;;;;;;;;;;17.20;55.00;;;;;;5077262;28;19924;-73
2023/04/23 00:46:15;;;;;;;;;;;17.20;55.00;;;;;;5095017;28;19921;-74
2023/04/23 00:48:41;;;;;;;;;;;17.20;55.10;;;;;;5076867;28;19962;-72
2023/04/23 00:51:06;;;;;;;;;;;17.20;55.10;;;;;;5076753;28;19975;-71
2023/04/23 00:53:32;;;;;;;;;;;17.10;55.00;;;;;;5076761;28;19924;-74
2023/04/23 00:56:00;;;;;;;;;;;17.10;55.00;;;;;;5094924;28;19920;-71
2023/04/23 00:58:26;;;;;;;;;;;17.10;55.00;;;;;;5094802;28;19920;-73
2023/04/23 01:00:52;;;;;;;;;;;17.10;55.00;;;;;;5076796;28;19943;-72
2023/04/23 01:03:20;;;;;;;;;;;17.10;55.10;;;;;;5094758;28;20364;-74
2023/04/23 01:05:46;;;;;;;;;;;17.10;55.00;;;;;;5076868;28;20268;-74
2023/04/23 01:08:14;;;;;;;;;;;17.10;55.00;;;;;;5094656;28;19920;-74
2023/04/23 01:10:39;;;;;;;;;;;17.10;55.00;;;;;;5076509;28;19928;-74
2023/04/23 01:13:05;;;;;;;;;;;17.10;55.00;;;;;;5076303;28;20287;-74
2023/04/23 01:15:30;;;;;;;;;;;17.10;55.00;;;;;;5094325;28;19939;-72
2023/04/23 01:17:57;;;;;;;;;;;17.10;55.00;;;;;;5076500;28;20340;-74
2023/04/23 01:20:23;;;;;;;;;;;17.10;55.00;;;;;;5076300;28;19924;-73
2023/04/23 01:22:51;;;;;;;;;;;17.10;55.00;;;;;;5076270;28;19920;-72
2023/04/23 01:25:16;;;;;;;;;;;17.00;54.90;;;;;;5076147;28;19971;-72
2023/04/23 01:27:42;;;;;;;;;;;17.10;54.90;;;;;;5076167;28;20021;-74
2023/04/23 01:30:07;;;;;;;;;;;17.10;54.90;;;;;;5094261;28;19920;-74
2023/04/23 01:32:34;;;;;;;;;;;17.00;55.60;;;;;;5076145;28;19920;-72
2023/04/23 01:35:00;;;;;;;;;;;17.00;54.90;;;;;;5076080;28;19985;-74
2023/04/23 01:37:26;;;;;;;;;;;17.00;54.80;;;;;;5075868;28;19920;-74
2023/04/23 01:39:52;;;;;;;;;;;17.00;54.80;;;;;;5075942;28;19920;-74
2023/04/23 01:42:17;;;;;;;;;;;17.00;54.80;;;;;;5075758;28;19927;-74
2023/04/23 01:44:43;;;;;;;;;;;17.00;54.80;;;;;;5076143;28;19920;-72
2023/04/23 01:47:08;;;;;;;;;;;17.00;54.80;;;;;;5075632;28;20022;-74
2023/04/23 01:49:34;;;;;;;;;;;17.00;54.80;;;;;;5076044;28;19946;-72
2023/04/23 01:52:00;;;;;;;;;;;17.00;54.80;;;;;;5075611;28;19927;-74
2023/04/23 01:54:25;;;;;;;;;;;17.00;54.80;;;;;;5075472;28;20022;-73
2023/04/23 01:56:53;;;;;;;;;;;17.00;54.80;;;;;;5075853;28;19924;-70
2023/04/23 01:59:19;;;;;;;;;;;17.00;54.80;;;;;;5058720;28;19924;-72
2023/04/23 02:01:45;;;;;;;;;;;17.00;54.80;;;;;;5093508;28;20367;-74
2023/04/23 02:04:11;;;;;;;;;;;17.00;54.70;;;;;;5093746;28;19927;-73
2023/04/23 02:06:37;;;;;;;;;;;17.00;54.70;;;;;;5075664;28;19936;-71
2023/04/23 02:09:03;;;;;;;;;;;17.00;54.70;;;;;;5075470;28;19946;-74
2023/04/23 02:11:28;;;;;;;;;;;17.00;54.70;;;;;;5075584;28;19969;-72
2023/04/23 02:13:54;;;;;;;;;;;16.90;54.60;;;;;;5071523;28;19925;-74
2023/04/23 02:16:19;;;;;;;;;;;17.00;54.70;;;;;;5073068;28;19920;-74
2023/04/23 02:18:45;;;;;;;;;;;17.00;54.70;;;;;;5072991;28;19951;-74
2023/04/23 02:21:11;;;;;;;;;;;16.90;54.60;;;;;;5071735;28;19974;-75
2023/04/23 02:23:37;;;;;;;;;;;16.90;54.60;;;;;;5071587;28;19920;-74
2023/04/23 02:26:03;;;;;;;;;;;16.90;54.60;;;;;;5071680;28;19975;-74
2023/04/23 02:28:28;;;;;;;;;;;16.90;54.60;;;;;;5071682;28;20011;-72
2023/04/23 02:30:54;;;;;;;;;;;16.90;54.60;;;;;;5071831;28;20258;-71
2023/04/23 02:33:19;;;;;;;;;;;16.90;54.60;;;;;;5071540;28;20260;-71
2023/04/23 02:35:45;;;;;;;;;;;16.90;54.60;;;;;;5071274;28;19936;-74
2023/04/23 02:38:11;;;;;;;;;;;16.90;54.50;;;;;;5071749;28;19921;-74
2023/04/23 02:40:36;;;;;;;;;;;16.90;54.50;;;;;;5071529;28;20379;-74
2023/04/23 02:43:02;;;;;;;;;;;16.90;54.50;;;;;;5071402;28;19924;-72
2023/04/23 02:45:27;;;;;;;;;;;16.90;54.50;;;;;;5072225;28;19920;-73
2023/04/23 02:47:53;;;;;;;;;;;16.80;54.40;;;;;;5071221;28;19973;-74
2023/04/23 02:50:18;;;;;;;;;;;16.90;54.50;;;;;;5072530;28;19921;-74
2023/04/23 02:52:44;;;;;;;;;;;16.80;54.40;;;;;;5071290;28;19920;-72
2023/04/23 02:55:09;;;;;;;;;;;16.80;54.40;;;;;;5071495;28;20027;-72
2023/04/23 02:57:35;;;;;;;;;;;16.80;54.40;;;;;;5071303;28;19927;-73
2023/04/23 03:00:01;;;;;;;;;;;16.80;54.40;;;;;;5071136;28;20070;-74
2023/04/23 03:02:26;;;;;;;;;;;16.90;54.50;;;;;;5071481;28;19920;-72
2023/04/23 03:04:52;;;;;;;;;;;16.80;54.40;;;;;;5071024;28;20214;-74
2023/04/23 03:07:17;;;;;;;;;;;16.90;54.50;;;;;;5071389;28;20261;-74
2023/04/23 03:09:43;;;;;;;;;;;16.80;54.40;;;;;;5071101;28;19921;-74
2023/04/23 03:12:08;;;;;;;;;;;16.80;54.40;;;;;;5070944;28;19955;-75
2023/04/23 03:14:34;;;;;;;;;;;16.80;54.40;;;;;;5070863;28;19972;-73
2023/04/23 03:17:00;;;;;;;;;;;16.80;54.40;;;;;;5071236;28;19921;-75
2023/04/23 03:19:25;;;;;;;;;;;16.80;54.40;;;;;;5072144;28;20425;-74
2023/04/23 03:21:51;;;;;;;;;;;16.80;54.40;;;;;;5072165;28;20022;-74
2023/04/23 03:24:16;;;;;;;;;;;16.80;54.40;;;;;;5071204;28;19951;-74
2023/04/23 03:26:42;;;;;;;;;;;16.80;54.40;;;;;;5070899;28;20383;-72
2023/04/23 03:29:07;;;;;;;;;;;16.70;54.30;;;;;;5054441;28;19920;-74
2023/04/23 03:31:33;;;;;;;;;;;16.70;54.30;;;;;;5070807;28;20014;-74
2023/04/23 03:33:58;;;;;;;;;;;16.70;54.30;;;;;;5071059;28;20019;-74
2023/04/23 03:36:24;;;;;;;;;;;16.70;54.30;;;;;;5070644;28;19976;-75
2023/04/23 03:38:49;;;;;;;;;;;16.70;54.30;;;;;;5070841;28;20031;-74
2023/04/23 03:41:15;;;;;;;;;;;16.70;54.30;;;;;;5071007;28;19920;-72
2023/04/23 03:43:40;;;;;;;;;;;16.70;54.30;;;;;;5071052;28;19920;-72
2023/04/23 03:46:06;;;;;;;;;;;16.70;54.30;;;;;;5071001;28;20003;-74
2023/04/23 03:48:31;;;;;;;;;;;16.70;54.30;;;;;;5070606;28;20296;-74
2023/04/23 03:50:57;;;;;;;;;;;16.70;54.30;;;;;;5070626;28;19921;-73
2023/04/23 03:53:22;;;;;;;;;;;16.70;54.30;;;;;;5070883;28;19927;-72
2023/04/23 03:55:48;;;;;;;;;;;16.70;54.30;;;;;;5070591;28;19924;-73
2023/04/23 03:58:13;;;;;;;;;;;16.70;54.30;;;;;;5074538;28;19924;-71
2023/04/23 04:00:39;;;;;;;;;;;16.70;54.30;;;;;;5074642;28;20011;-75
2023/04/23 04:03:05;;;;;;;;;;;16.70;54.30;;;;;;5075601;28;20037;-75
2023/04/23 04:05:30;;;;;;;;;;;16.70;54.30;;;;;;5074588;28;20015;-72
2023/04/23 04:07:56;;;;;;;;;;;16.70;54.30;;;;;;5074113;28;20005;-74
2023/04/23 04:10:21;;;;;;;;;;;16.70;54.30;;;;;;5075750;28;20094;-74
2023/04/23 04:12:47;;;;;;;;;;;16.70;54.30;;;;;;5074389;28;19925;-75
2023/04/23 04:15:13;;;;;;;;;;;16.70;54.30;;;;;;5073913;28;19924;-74
2023/04/23 04:17:38;;;;;;;;;;;16.70;54.30;;;;;;5074030;28;20279;-75
2023/04/23 04:20:06;;;;;;;;;;;16.70;54.30;;;;;;5074415;28;19927;-75
2023/04/23 04:22:32;;;;;;;;;;;16.70;54.30;;;;;;5075192;28;20334;-74
2023/04/23 04:25:01;;;;;;;;;;;16.60;54.20;;;;;;5074258;28;20007;-71
2023/04/23 04:27:27;;;;;;;;;;;16.70;54.20;;;;;;5074158;28;19947;-74
2023/04/23 04:29:52;;;;;;;;;;;16.60;54.20;;;;;;5075417;28;20132;-73
2023/04/23 04:32:18;;;;;;;;;;;16.70;54.20;;;;;;5074155;28;19920;-73
2023/04/23 04:34:43;;;;;;;;;;;16.60;54.20;;;;;;5073675;28;19987;-72
2023/04/23 04:37:10;;;;;;;;;;;16.60;54.20;;;;;;5073618;28;19921;-72
2023/04/23 04:39:36;;;;;;;;;;;16.70;54.30;;;;;;5073656;28;19927;-74
2023/04/23 04:42:02;;;;;;;;;;;16.60;54.20;;;;;;5075102;28;20300;-74
2023/04/23 04:44:29;;;;;;;;;;;16.60;54.20;;;;;;5073603;28;19927;-72
2023/04/23 04:46:55;;;;;;;;;;;16.60;54.20;;;;;;5074748;28;19927;-71
2023/04/23 04:49:20;;;;;;;;;;;16.60;54.20;;;;;;5074774;28;19943;-74
2023/04/23 04:51:46;;;;;;;;;;;16.60;54.20;;;;;;5073429;28;19920;-74
2023/04/23 04:54:11;;;;;;;;;;;16.60;54.20;;;;;;5073476;28;19924;-74
2023/04/23 04:56:37;;;;;;;;;;;16.60;54.20;;;;;;5073358;28;19974;-75
2023/04/23 04:59:03;;;;;;;;;;;16.60;54.20;;;;;;5074649;28;20008;-72
2023/04/23 05:01:28;;;;;;;;;;;16.60;54.20;;;;;;5073522;28;19921;-72
2023/04/23 05:03:54;;;;;;;;;;;16.60;54.20;;;;;;5073289;28;19946;-74
2023/04/23 05:06:20;;;;;;;;;;;16.60;54.20;;;;;;5073306;28;19920;-74
2023/04/23 05:08:47;;;;;;;;;;;16.60;54.20;;;;;;5074072;28;19920;-75
2023/04/23 05:11:13;;;;;;;;;;;16.60;54.20;;;;;;5073430;28;19925;-72
2023/04/23 05:13:40;;;;;;;;;;;16.50;54.20;;;;;;5072779;28;19924;-72
2023/04/23 05:16:05;;;;;;;;;;;16.50;54.20;;;;;;5073309;28;20011;-73
2023/04/23 05:18:31;;;;;;;;;;;16.60;54.20;;;;;;5073045;28;20419;-74
2023/04/23 05:20:56;;;;;;;;;;;16.60;54.20;;;;;;5072894;28;19951;-75
2023/04/23 05:23:22;;;;;;;;;;;16.60;54.20;;;;;;5072836;28;19986;-74
2023/04/23 05:25:48;;;;;;;;;;;16.50;54.20;;;;;;5073034;28;19920;-72
2023/04/23 05:28:14;;;;;;;;;;;16.50;54.20;;;;;;5073142;28;20392;-72
2023/04/23 05:30:40;;;;;;;;;;;16.50;54.20;;;;;;5074180;28;20012;-74
2023/04/23 05:33:05;;;;;;;;;;;16.50;54.20;;;;;;5073008;28;19924;-72
2023/04/23 05:35:31;;;;;;;;;;;16.60;54.20;;;;;;5072563;28;19920;-75
2023/04/23 05:37:56;;;;;;;;;;;16.60;54.20;;;;;;5072877;28;20314;-74
2023/04/23 05:40:22;;;;;;;;;;;16.50;54.20;;;;;;5072579;28;20419;-72
2023/04/23 05:42:47;;;;;;;;;;;16.50;54.20;;;;;;5072760;28;19920;-74
2023/04/23 05:45:13;;;;;;;;;;;16.50;54.20;;;;;;5072718;28;20422;-73
2023/04/23 05:47:38;;;;;;;;;;;16.50;54.20;;;;;;5072411;28;20018;-75
2023/04/23 05:50:05;;;;;;;;;;;16.50;54.20;;;;;;5073618;28;19943;-74
2023/04/23 05:52:32;;;;;;;;;;;16.50;54.20;;;;;;5072290;28;19927;-72
2023/04/23 05:54:57;;;;;;;;;;;16.50;54.10;;;;;;5072280;28;19920;-74
2023/04/23 05:57:23;;;;;;;;;;;16.50;54.10;;;;;;5072171;28;19931;-74
2023/04/23 05:59:48;;;;;;;;;;;16.50;54.10;;;;;;5072407;28;19920;-72
2023/04/23 06:02:14;;;;;;;;;;;16.50;54.10;;;;;;5071995;28;20015;-75
2023/04/23 06:04:39;;;;;;;;;;;16.50;54.10;;;;;;5072350;28;19924;-72
2023/04/23 06:07:05;;;;;;;;;;;16.50;54.10;;;;;;5073230;28;19977;-72
2023/04/23 06:09:30;;;;;;;;;;;16.50;54.20;;;;;;5071993;28;19920;-74
2023/04/23 06:11:56;;;;;;;;;;;16.50;54.10;;;;;;5071888;28;19928;-73
2023/04/23 06:14:21;;;;;;;;;;;16.50;54.10;;;;;;5071806;28;20166;-74
2023/04/23 06:16:47;;;;;;;;;;;16.50;54.10;;;;;;5071991;28;20012;-75
2023/04/23 06:19:12;;;;;;;;;;;16.50;54.10;;;;;;5072410;28;20411;-75
2023/04/23 06:21:38;;;;;;;;;;;16.50;54.10;;;;;;5071762;28;19920;-76
2023/04/23 06:24:04;;;;;;;;;;;16.50;54.10;;;;;;5071703;28;19921;-72
2023/04/23 06:26:30;;;;;;;;;;;16.50;54.10;;;;;;5071569;28;20433;-72
2023/04/23 06:28:55;;;;;;;;;;;16.50;54.10;;;;;;5072901;28;19920;-72
2023/04/23 06:31:21;;;;;;;;;;;16.50;54.10;;;;;;5072882;28;19920;-73
2023/04/23 06:33:46;;;;;;;;;;;16.50;54.10;;;;;;5071718;28;19920;-72
2023/04/23 06:36:13;;;;;;;;;;;16.50;54.10;;;;;;5071833;28;20394;-74
2023/04/23 06:38:39;;;;;;;;;;;16.50;54.10;;;;;;5071420;28;19921;-72
2023/04/23 06:41:04;;;;;;;;;;;16.50;54.10;;;;;;5071711;28;19970;-71
2023/04/23 06:43:30;;;;;;;;;;;16.50;54.10;;;;;;5071660;28;19926;-72
2023/04/23 06:45:55;;;;;;;;;;;16.50;54.10;;;;;;5071676;28;19970;-74
2023/04/23 06:48:21;;;;;;;;;;;16.50;54.10;;;;;;5071504;28;19940;-73
2023/04/23 06:50:47;;;;;;;;;;;16.50;54.10;;;;;;5071474;28;19920;-72
2023/04/23 06:53:13;;;;;;;;;;;16.50;54.10;;;;;;5071244;28;19928;-72
2023/04/23 06:55:38;;;;;;;;;;;16.50;54.10;;;;;;5071210;28;19967;-74
2023/04/23 06:58:06;;;;;;;;;;;16.50;54.10;;;;;;5072592;28;19920;-74
2023/04/23 07:00:32;;;;;;;;;;;16.50;54.10;;;;;;5071456;28;19920;-74
2023/04/23 07:02:57;;;;;;;;;;;16.50;54.10;;;;;;5071413;28;19965;-74
2023/04/23 07:05:23;;;;;;;;;;;16.50;54.10;;;;;;5071127;28;20014;-73
2023/04/23 07:07:48;;;;;;;;;;;16.50;54.10;;;;;;5071394;28;20179;-74
2023/04/23 07:10:14;;;;;;;;;;;16.60;54.10;;;;;;5072401;28;19924;-74
2023/04/23 07:12:40;;;;;;;;;;;16.50;54.10;;;;;;5071009;28;19920;-74
2023/04/23 07:15:05;;;;;;;;;;;16.60;54.10;;;;;;5070740;28;19928;-74
2023/04/23 07:17:31;;;;;;;;;;;16.60;54.10;;;;;;5071247;28;20291;-74
2023/04/23 07:19:57;;;;;;;;;;;16.60;54.10;;;;;;5072284;28;19921;-74
2023/04/23 07:22:23;;;;;;;;;;;16.60;54.10;;;;;;5071209;28;20326;-74
2023/04/23 07:24:49;;;;;;;;;;;16.60;54.10;;;;;;5070771;28;20441;-74
2023/04/23 07:27:14;;;;;;;;;;;16.60;54.10;;;;;;5070758;28;19924;-73
2023/04/23 07:29:40;;;;;;;;;;;16.60;54.00;;;;;;5070995;28;19924;-74
2023/04/23 07:32:05;;;;;;;;;;;16.60;54.00;;;;;;5074879;28;20015;-74
2023/04/23 07:34:31;;;;;;;;;;;16.60;54.00;;;;;;5074726;28;19977;-74
2023/04/23 07:36:56;;;;;;;;;;;16.60;54.00;;;;;;5076247;28;19959;-73
2023/04/23 07:39:22;;;;;;;;;;;16.60;54.00;;;;;;5074531;28;19924;-73
2023/04/23 07:41:47;;;;;;;;;;;16.60;54.00;;;;;;5074570;28;20015;-73
2023/04/23 07:44:13;;;;;;;;;;;16.60;54.00;;;;;;5074887;28;20356;-71
2023/04/23 07:46:38;;;;;;;;;;;16.60;54.00;;;;;;5075074;28;20217;-73
2023/04/23 07:49:04;;;;;;;;;;;16.60;54.00;;;;;;5075959;28;20318;-73
2023/04/23 07:51:30;;;;;;;;;;;16.60;53.90;;;;;;5074678;28;19968;-73
2023/04/23 07:53:57;;;;;;;;;;;16.60;53.90;;;;;;5074489;28;19928;-71
2023/04/23 07:56:23;;;;;;;;;;;16.60;53.90;;;;;;5074481;28;19924;-73
2023/04/23 07:58:49;;;;;;;;;;;16.60;53.90;;;;;;5074595;28;19920;-72
2023/04/23 08:01:14;;;;;;;;;;;16.70;54.00;;;;;;5074389;28;20389;-73
2023/04/23 08:03:40;;;;;;;;;;;16.60;53.90;;;;;;5074538;28;19920;-71
2023/04/23 08:06:05;;;;;;;;;;;16.70;53.90;;;;;;5074564;28;20392;-71
2023/04/23 08:08:34;;;;;;;;;;;16.70;53.90;;;;;;5074375;28;20460;-73
2023/04/23 08:11:00;;;;;;;;;;;16.70;53.90;;;;;;5075399;28;19926;-72
2023/04/23 08:13:25;;;;;;;;;;;16.60;53.90;;;;;;5079810;28;19924;-72
2023/04/23 08:15:50;;;;;;;;;;;16.70;53.90;;;;;;5095551;28;19978;-74
2023/04/23 08:18:16;;;;;;;;;;;16.70;53.90;;;;;;5077429;28;19920;-73
2023/04/23 08:20:42;;;;;;;;;;;16.70;53.90;;;;;;5095697;28;19924;-72
2023/04/23 08:23:07;;;;;;;;;;;16.70;53.90;;;;;;5095430;28;19920;-72
2023/04/23 08:25:33;;;;;;;;;;;16.70;53.90;;;;;;5077564;28;19928;-71
2023/04/23 08:27:59;;;;;;;;;;;16.60;53.80;;;;;;5095469;28;20166;-70
2023/04/23 08:30:24;;;;;;;;;;;16.70;53.90;;;;;;5077245;28;19923;-73
2023/04/23 08:32:52;;;;;;;;;;;16.70;53.80;;;;;;5077175;28;19924;-72
2023/04/23 08:35:18;;;;;;;;;;;16.70;53.80;;;;;;5077179;28;19924;-72
2023/04/23 08:37:43;;;;;;;;;;;16.70;53.90;;;;;;5077106;28;20284;-72
2023/04/23 08:40:09;;;;;;;;;;;16.70;53.80;;;;;;5077437;28;20014;-72
2023/04/23 08:45:15;;;;;;;;;;;16.70;53.90;;;;;;5090145;28;19919;-73
2023/04/23 08:47:42;;;;;;;;;;;16.70;53.80;;;;;;5088534;28;20003;-72
2023/04/23 08:50:09;;;;;;;;;;;16.70;53.80;;;;;;5088513;28;19999;-72
2023/04/23 08:52:37;;;;;;;;;;;16.70;53.80;;;;;;5089816;28;20277;-72
2023/04/23 08:55:06;;;;;;;;;;;16.70;53.80;;;;;;5088521;28;19920;-72
2023/04/23 08:57:31;;;;;;;;;;;16.70;53.80;;;;;;5105297;28;19928;-71
2023/04/23 08:59:57;;;;;;;;;;;16.70;53.70;;;;;;5088418;28;19958;-72
2023/04/23 09:02:23;;;;;;;;;;;16.70;53.70;;;;;;5089731;28;20382;-72
2023/04/23 09:04:49;;;;;;;;;;;16.80;53.60;;;;;;5089546;28;20015;-72
2023/04/23 09:07:14;;;;;;;;;;;16.80;53.40;;;;;;5088597;28;19921;-72
2023/04/23 09:09:40;;;;;;;;;;;16.80;53.30;;;;;;5088249;28;20363;-71
2023/04/23 09:12:06;;;;;;;;;;;16.80;53.40;;;;;;5088094;28;19924;-71
2023/04/23 09:14:32;;;;;;;;;;;16.90;53.40;;;;;;5105093;28;19924;-72
2023/04/23 09:16:58;;;;;;;;;;;16.90;53.30;;;;;;5088048;28;20003;-71
2023/04/23 09:19:26;;;;;;;;;;;16.90;53.30;;;;;;5088400;28;20058;-72
2023/04/23 09:21:52;;;;;;;;;;;16.90;53.20;;;;;;5104946;28;20364;-71
2023/04/23 09:24:20;;;;;;;;;;;17.00;53.20;;;;;;5087847;28;19931;-71
2023/04/23 09:26:47;;;;;;;;;;;17.00;53.20;;;;;;5089178;28;20007;-71
2023/04/23 09:29:16;;;;;;;;;;;17.00;53.10;;;;;;5088121;28;20395;-71
2023/04/23 09:31:42;;;;;;;;;;;17.00;53.00;;;;;;5089271;28;19966;-71
2023/04/23 09:34:08;;;;;;;;;;;17.00;53.00;;;;;;5087940;28;20313;-71
2023/04/23 09:36:35;;;;;;;;;;;17.00;53.00;;;;;;5087688;28;19927;-70
2023/04/23 09:39:00;;;;;;;;;;;17.00;53.00;;;;;;5088894;28;19924;-71
2023/04/23 09:41:26;;;;;;;;;;;17.10;53.10;;;;;;5087969;28;19983;-71
2023/04/23 09:43:54;;;;;;;;;;;17.00;53.00;;;;;;5087112;28;19946;-71
2023/04/23 09:46:35;;;;;;;;;;;17.10;53.00;;;;;;5087799;28;19920;-71
2023/04/23 09:49:02;;;;;;;;;;;17.10;52.90;;;;;;5088657;28;19924;-71
2023/04/23 09:51:28;;;;;;;;;;;17.10;52.90;;;;;;5104760;28;19927;-72
2023/04/23 09:53:54;;;;;;;;;;;17.10;52.80;;;;;;5088612;28;19920;-71
2023/04/23 09:56:20;;;;;;;;;;;17.10;52.80;;;;;;5075415;28;19920;-71
2023/04/23 09:58:46;;;;;;;;;;;17.10;52.90;;;;;;5073763;28;19974;-70
2023/04/23 10:01:14;;;;;;;;;;;17.20;52.80;;;;;;5073744;28;19920;-71
2023/04/23 10:03:41;;;;;;;;;;;17.20;52.70;;;;;;5073827;28;20315;-71
2023/04/23 10:06:07;;;;;;;;;;;17.20;52.70;;;;;;5075405;28;19931;-71
2023/04/23 10:08:32;;;;;;;;;;;17.20;52.80;;;;;;5073653;28;20375;-71
2023/04/23 10:10:58;;;;;;;;;;;17.20;52.80;;;;;;5073761;28;19986;-71
2023/04/23 10:13:24;;;;;;;;;;;17.20;52.80;;;;;;5073568;28;19920;-71
2023/04/23 10:15:51;;;;;;;;;;;17.20;52.70;;;;;;5073752;28;19927;-72
2023/04/23 10:18:18;;;;;;;;;;;17.20;52.80;;;;;;5073617;28;19963;-71
2023/04/23 10:20:44;;;;;;;;;;;17.20;52.80;;;;;;5074778;28;19921;-72
2023/04/23 10:23:10;;;;;;;;;;;17.20;52.70;;;;;;5074525;28;19931;-72
2023/04/23 10:25:37;;;;;;;;;;;17.20;52.80;;;;;;5073198;28;19920;-71
2023/04/23 10:28:06;;;;;;;;;;;17.20;52.80;;;;;;5073211;28;19927;-71
2023/04/23 10:30:32;;;;;;;;;;;17.20;52.70;;;;;;5073502;28;19986;-71
2023/04/23 10:32:59;;;;;;;;;;;17.30;52.80;;;;;;5073144;28;19963;-71
2023/04/23 10:35:25;;;;;;;;;;;17.20;52.80;;;;;;5073055;28;19999;-71
2023/04/23 10:37:50;;;;;;;;;;;17.30;52.90;;;;;;5072982;28;20011;-71
2023/04/23 10:40:20;;;;;;;;;;;17.20;52.90;;;;;;5074287;28;20032;-71
2023/04/23 10:42:46;;;;;;;;;;;17.20;52.80;;;;;;5073290;28;19921;-71
2023/04/23 10:45:13;;;;;;;;;;;17.20;53.00;;;;;;5094535;28;20049;-72
2023/04/23 10:47:40;;;;;;;;;;;17.20;52.90;;;;;;5076196;28;19920;-71
2023/04/23 10:50:26;;;;;;;;;;;17.20;53.10;;;;;;5094435;28;19927;-71
2023/04/23 10:52:53;;;;;;;;;;;17.20;52.90;;;;;;5076302;28;19943;-71
2023/04/23 10:55:20;;;;;;;;;;;17.20;53.10;;;;;;5076316;28;19927;-71
2023/04/23 10:58:06;;;;;;;;;;;17.20;53.10;;;;;;5094240;28;19928;-71
2023/04/23 11:00:47;;;;;;;;;;;17.20;53.00;;;;;;5076095;28;20426;-71
2023/04/23 11:03:32;;;;;;;;;;;17.20;52.90;;;;;;5094016;28;20386;-72
2023/04/23 11:06:02;;;;;;;;;;;17.20;53.20;;;;;;5075385;28;20391;-71
2023/04/23 11:08:28;;;;;;;;;;;17.20;53.10;;;;;;5075597;28;19955;-71
2023/04/23 11:10:55;;;;;;;;;;;17.20;53.10;;;;;;5075614;28;20391;-71
2023/04/23 11:13:24;;;;;;;;;;;17.20;53.10;;;;;;5092590;28;19973;-71
2023/04/23 11:16:10;;;;;;;;;;;17.20;53.20;;;;;;5075546;28;20399;-71
2023/04/23 11:18:55;;;;;;;;;;;17.20;53.00;;;;;;5075850;28;19924;-71
2023/04/23 11:21:21;;;;;;;;;;;17.20;53.00;;;;;;5093417;28;19920;-72
2023/04/23 11:23:46;;;;;;;;;;;17.20;53.10;;;;;;5075707;28;19924;-71
2023/04/23 11:26:15;;;;;;;;;;;17.20;53.20;;;;;;5075678;28;20396;-71
2023/04/23 11:28:42;;;;;;;;;;;17.20;53.10;;;;;;5075339;28;19969;-71
2023/04/23 11:31:08;;;;;;;;;;;17.20;53.20;;;;;;5075596;28;19946;-71
2023/04/23 11:33:33;;;;;;;;;;;17.20;53.20;;;;;;5075212;28;19955;-71
2023/04/23 11:36:01;;;;;;;;;;;17.20;53.10;;;;;;5093351;28;19971;-71
2023/04/23 11:38:32;;;;;;;;;;;17.20;53.10;;;;;;5092324;28;20329;-71
2023/04/23 11:41:00;;;;;;;;;;;17.20;53.20;;;;;;5093283;28;19920;-70
2023/04/23 11:43:28;;;;;;;;;;;17.20;53.20;;;;;;5088203;28;20008;-71
2023/04/23 11:45:54;;;;;;;;;;;17.30;53.10;;;;;;5072159;28;19924;-71
2023/04/23 11:48:19;;;;;;;;;;;17.20;53.20;;;;;;5071863;28;19921;-71
2023/04/23 11:50:45;;;;;;;;;;;17.20;53.20;;;;;;5071953;28;19947;-71
2023/04/23 11:53:11;;;;;;;;;;;17.20;53.10;;;;;;5072904;28;19920;-70
2023/04/23 11:55:37;;;;;;;;;;;17.20;53.10;;;;;;5072120;28;20367;-71
2023/04/23 11:58:03;;;;;;;;;;;17.20;53.30;;;;;;5071404;28;20007;-70
2023/04/23 12:00:28;;;;;;;;;;;17.20;53.10;;;;;;5071345;28;19999;-70
2023/04/23 12:05:36;;;;;;;;;;;17.20;53.30;;;;;;5108785;27;19919;-70
2023/04/23 12:08:17;;;;;;;;;;;17.20;54.00;;;;;;5108974;28;19920;-70
2023/04/23 12:13:25;;;;;;;;;;;17.20;53.20;;;;;;5089853;28;20379;-70
2023/04/23 12:18:32;;;;;;;;;;;17.20;53.30;;;;;;5110297;27;19912;-72
2023/04/23 12:21:13;;;;;;;;;;;17.20;53.20;;;;;;5108981;28;19927;-71
2023/04/23 12:23:39;;;;;;;;;;;17.20;53.30;;;;;;5109397;28;20010;-70
2023/04/23 12:26:10;;;;;;;;;;;17.20;53.20;;;;;;5108860;28;19924;-72
2023/04/23 12:28:44;;;;;;;;;;;17.20;53.20;;;;;;5108852;28;19920;-70
2023/04/23 12:31:09;;;;;;;;;;;17.20;53.20;;;;;;5108797;28;19946;-70
2023/04/23 12:33:35;;;;;;;;;;;17.20;53.30;;;;;;5109994;28;19945;-70
2023/04/23 12:36:01;;;;;;;;;;;17.20;53.30;;;;;;5108525;28;19920;-70
2023/04/23 12:38:27;;;;;;;;;;;17.20;53.30;;;;;;5108954;28;19926;-70
2023/04/23 12:40:53;;;;;;;;;;;17.20;53.30;;;;;;5142798;27;19939;-70
2023/04/23 12:43:19;;;;;;;;;;;17.20;53.20;;;;;;5109025;28;19965;-70
2023/04/23 12:45:45;;;;;;;;;;;17.30;53.30;;;;;;5109849;28;19920;-69
2023/04/23 12:48:11;;;;;;;;;;;17.20;53.30;;;;;;5109855;28;20011;-69
2023/04/23 12:50:36;;;;;;;;;;;17.30;53.30;;;;;;5109561;28;19931;-70
2023/04/23 12:53:02;;;;;;;;;;;17.20;53.30;;;;;;5109938;28;19924;-69
2023/04/23 12:55:27;;;;;;;;;;;17.20;53.30;;;;;;5108278;28;19927;-70
2023/04/23 12:57:53;;;;;;;;;;;17.20;53.30;;;;;;5108223;28;19933;-69
2023/04/23 13:00:19;;;;;;;;;;;17.30;53.40;;;;;;5108416;28;20037;-70
2023/04/23 13:02:44;;;;;;;;;;;17.20;53.30;;;;;;5109510;28;19927;-69
2023/04/23 13:05:10;;;;;;;;;;;17.30;53.40;;;;;;5109363;28;20322;-70
2023/04/23 13:07:35;;;;;;;;;;;17.30;53.40;;;;;;5109284;28;19955;-70
2023/04/23 13:10:01;;;;;;;;;;;17.20;53.20;;;;;;5108028;28;20001;-70
2023/04/23 13:12:26;;;;;;;;;;;17.30;53.40;;;;;;5108278;28;20146;-69
2023/04/23 13:14:52;;;;;;;;;;;17.30;53.30;;;;;;5107886;28;19924;-69
2023/04/23 13:17:17;;;;;;;;;;;17.30;53.30;;;;;;5107764;28;19924;-69
2023/04/23 13:19:43;;;;;;;;;;;17.30;53.30;;;;;;5107854;28;19998;-70
2023/04/23 13:22:09;;;;;;;;;;;17.30;53.40;;;;;;5107741;28;19927;-70
2023/04/23 13:24:34;;;;;;;;;;;17.30;53.40;;;;;;5107972;28;19927;-69
2023/04/23 13:27:00;;;;;;;;;;;17.30;53.30;;;;;;5107871;28;19919;-69
2023/04/23 13:29:26;;;;;;;;;;;17.30;53.30;;;;;;5096252;28;20380;-70
2023/04/23 13:31:52;;;;;;;;;;;17.30;53.40;;;;;;5093985;28;19968;-69
2023/04/23 13:34:18;;;;;;;;;;;17.20;53.30;;;;;;5094261;28;19927;-69
2023/04/23 13:36:43;;;;;;;;;;;17.30;53.30;;;;;;5093972;28;19924;-70
2023/04/23 13:39:10;;;;;;;;;;;17.30;53.30;;;;;;5093789;28;19920;-70
2023/04/23 13:41:36;;;;;;;;;;;17.30;53.40;;;;;;5094937;28;20015;-69
2023/04/23 13:44:02;;;;;;;;;;;17.20;53.30;;;;;;5094116;28;20023;-69
2023/04/23 13:46:27;;;;;;;;;;;17.30;53.40;;;;;;5093989;28;20368;-70
2023/04/23 13:48:53;;;;;;;;;;;17.30;53.30;;;;;;5094988;28;19920;-69
2023/04/23 13:51:18;;;;;;;;;;;17.30;53.40;;;;;;5127699;27;20442;-70
2023/04/23 13:53:44;;;;;;;;;;;17.30;53.30;;;;;;5094886;28;19927;-70
2023/04/23 13:56:09;;;;;;;;;;;17.30;53.40;;;;;;5093717;28;19924;-69
2023/04/23 13:58:35;;;;;;;;;;;17.30;53.40;;;;;;5093834;28;19982;-69
2023/04/23 14:01:00;;;;;;;;;;;17.30;53.30;;;;;;5094519;28;19920;-69
2023/04/23 14:03:26;;;;;;;;;;;17.30;53.40;;;;;;5093672;28;20039;-71
2023/04/23 14:05:51;;;;;;;;;;;17.30;53.40;;;;;;5093376;28;20454;-69
2023/04/23 14:08:17;;;;;;;;;;;17.30;53.30;;;;;;5093544;28;20148;-71
2023/04/23 14:10:42;;;;;;;;;;;17.30;53.40;;;;;;5093304;28;20299;-71
2023/04/23 14:13:08;;;;;;;;;;;17.30;53.40;;;;;;5093156;28;19920;-69
2023/04/23 14:15:34;;;;;;;;;;;17.30;53.30;;;;;;5093537;28;19920;-71
2023/04/23 14:17:59;;;;;;;;;;;17.40;53.40;;;;;;5092796;28;19924;-69
2023/04/23 14:20:25;;;;;;;;;;;17.30;53.40;;;;;;5093397;28;20010;-69